ADDS TAF Board (Experimental) INFO Settings
IDs: Format: Expanded Condensed

KDTW - Detroit Metro/Wayne, MI, US

Issued at 0536 UTC 24 May 2015
Updated at: 0708 UTC 24 May 2015
Time0653Z 24/08Z 24/09Z 24/10Z 24/11Z 24/12Z 24/13Z 24/14Z 24/15Z 24/16Z 24/17Z 24/18Z 24/19Z 24/20Z
Type OBS PRVL PRVL PRVL PRVL PRVL PRVL PRVL PRVL PRVL PRVL PRVL PRVL PRVL
VIS 10 >6 >6 >6 >6 >6 >6 >6 >6 >6 >6 >6 >6 >6
CIG -- 250 250 250 250 250 250 150 150 150 150 150 150 150
Cover CLR BKN BKN BKN BKN BKN BKN BKN BKN BKN BKN BKN BKN BKN
FltCat VFR VFR VFR VFR VFR VFR VFR VFR VFR VFR VFR VFR VFR VFR
WX -- -- -- -- -- -- -- -- -- -- -- -- -- --
WDir VRB 170 170 170 170 170 170 190 190 190 190 190 190 190
WSpd 0 4 4 4 4 4 4 9 9 9 9 9 9 9
WGst -- -- -- -- -- -- -- -- -- -- -- -- -- --
R03/21
XWnd VRB -3 -3 -3 -3 -3 -3 -3 -3 -3 -3 -3 -3 -3
HWnd VRB -3 -3 -3 -3 -3 -3 -9 -9 -9 -9 -9 -9 -9
R04/22
XWnd VRB -3 -3 -3 -3 -3 -3 -3 -3 -3 -3 -3 -3 -3
HWnd VRB -3 -3 -3 -3 -3 -3 -9 -9 -9 -9 -9 -9 -9
R09/27
XWnd VRB -4 -4 -4 -4 -4 -4 -9 -9 -9 -9 -9 -9 -9
HWnd VRB 1 1 1 1 1 1 -2 -2 -2 -2 -2 -2 -2

NOTE: TEMPO conditions in [brackets]. Keep in mind TEMPO conditions might be better (lower impact) than prevailing conditions.

Raw TAF
KDTW 240536Z 2406/2512 17004KT P6SM BKN250
  FM241400 19009KT P6SM SCT090 BKN150
  FM242200 16006KT P6SM SCT060 OVC100
  FM250800 19010KT P6SM BKN080 BKN150


Raw METAR
KDTW 240653Z 00000KT 10SM CLR 12/09 A3026 RMK AO2 SLP246 T01220089
KDTW 240553Z 00000KT 10SM CLR 14/08 A3027 RMK AO2 SLP248 T01440083 10206 20139 58008
KDTW 240453Z 00000KT 10SM CLR 15/08 A3028 RMK AO2 SLP254 T01500078 402440050

METAR Board
Radar Display
Forecast Discussion

TAF Board Legend

Potential Impact
Threat None Slight Moderate High
Visibility (sm) ≥5.1 5.1>X≥3 3>X≥1 <1
Ceiling (100 ft) ≥30.1 30.1>X≥10 10>X≥5 <5
Wind Speed (kt) <10 10≤X<20 20≤X<30 ≥30
Wind Gust (kt) <15 15≤X<25 25≤X<35 ≥35
Weather No Wx Reported VCTS,-TS,-FZRA,SN TS,FZRA +TS,+FZRA,+SN